createdAt,value
2023-03-17T04:12:52.962Z,49.63
2023-03-17T04:13:52.869Z,48.98
2023-03-17T04:14:52.821Z,48.66
2023-03-17T04:15:52.864Z,47.21
2023-03-17T04:16:52.805Z,48.02
2023-03-17T04:17:52.849Z,49.95
2023-03-17T04:18:52.870Z,50.11
2023-03-17T04:19:52.802Z,47.53
2023-03-17T04:20:52.787Z,49.63
2023-03-17T04:21:54.658Z,48.98
2023-03-17T04:22:53.767Z,48.98
2023-03-17T04:23:52.766Z,49.79
2023-03-17T04:24:52.717Z,49.95
2023-03-17T04:25:52.714Z,52.53
2023-03-17T04:26:52.691Z,50.11
2023-03-17T04:27:52.724Z,50.60
2023-03-17T04:28:52.741Z,50.11
2023-03-17T04:29:52.722Z,48.02
2023-03-17T04:30:52.725Z,49.79
2023-03-17T04:31:52.740Z,50.92
2023-03-17T04:32:52.713Z,50.11
2023-03-17T04:33:52.670Z,50.60
2023-03-17T04:34:52.676Z,50.27
2023-03-17T04:35:52.745Z,49.95
2023-03-17T04:36:52.623Z,53.17
2023-03-17T04:37:52.655Z,51.88
2023-03-17T04:38:52.630Z,53.33
2023-03-17T04:39:52.641Z,52.21
2023-03-17T04:40:52.597Z,54.14
2023-03-17T04:41:52.609Z,49.63
2023-03-17T04:42:52.630Z,51.72
2023-03-17T04:43:52.636Z,49.95
2023-03-17T04:44:52.584Z,50.76
2023-03-17T04:45:52.700Z,51.24
2023-03-17T04:46:52.714Z,49.47
2023-03-17T04:47:52.579Z,49.15
2023-03-17T04:48:52.589Z,52.69
2023-03-17T04:49:52.563Z,53.33
2023-03-17T04:50:52.561Z,50.60
2023-03-17T04:51:52.540Z,50.76
2023-03-17T04:52:53.485Z,51.56
2023-03-17T04:53:52.606Z,51.08
2023-03-17T04:54:52.554Z,48.82
2023-03-17T04:55:52.541Z,50.76
2023-03-17T04:56:53.535Z,51.40
2023-03-17T04:57:52.538Z,49.95
2023-03-17T04:58:52.559Z,51.40
2023-03-17T04:59:52.522Z,49.15
2023-03-17T05:00:52.533Z,51.08
2023-03-17T05:01:52.545Z,50.92
2023-03-17T05:02:52.486Z,50.43
2023-03-17T05:03:52.474Z,49.63
2023-03-17T05:04:52.471Z,52.69
2023-03-17T05:05:52.537Z,50.92
2023-03-17T05:06:52.461Z,50.11
2023-03-17T05:07:52.436Z,51.56
2023-03-17T05:08:52.482Z,53.17
2023-03-17T05:09:52.983Z,52.85
2023-03-17T05:10:52.399Z,51.88
2023-03-17T05:11:52.437Z,52.05
2023-03-17T05:12:52.422Z,53.33
2023-03-17T05:13:52.403Z,54.62
2023-03-17T05:14:52.400Z,53.17
2023-03-17T05:15:52.395Z,51.72
2023-03-17T05:16:52.445Z,51.72
2023-03-17T05:17:52.345Z,50.11
2023-03-17T05:18:52.362Z,51.56
2023-03-17T05:19:52.373Z,51.08
2023-03-17T05:20:52.351Z,53.17
2023-03-17T05:21:52.361Z,53.98
2023-03-17T05:22:52.984Z,51.56
2023-03-17T05:23:54.911Z,52.53
2023-03-17T05:24:53.311Z,54.62
2023-03-17T05:25:52.316Z,52.69
2023-03-17T05:26:52.294Z,52.05
2023-03-17T05:27:52.316Z,52.05
2023-03-17T05:28:52.291Z,51.88
2023-03-17T05:29:52.277Z,52.05
2023-03-17T05:30:52.315Z,51.72
2023-03-17T05:31:52.291Z,52.21
2023-03-17T05:32:52.391Z,52.85
2023-03-17T05:33:52.254Z,54.30
2023-03-17T05:34:52.283Z,54.79
2023-03-17T05:35:52.415Z,53.98
2023-03-17T05:36:52.260Z,53.82
2023-03-17T05:37:52.216Z,53.17
2023-03-17T05:38:52.208Z,53.98
2023-03-17T05:39:52.231Z,52.69
2023-03-17T05:40:52.218Z,54.95
2023-03-17T05:41:52.243Z,54.14
2023-03-17T05:42:52.214Z,53.01
2023-03-17T05:43:52.205Z,53.33
2023-03-17T05:44:52.202Z,54.79
2023-03-17T05:45:52.251Z,54.46
2023-03-17T05:46:52.200Z,52.85
2023-03-17T05:47:52.185Z,51.56
2023-03-17T05:48:52.161Z,53.17
2023-03-17T05:49:52.164Z,53.50
2023-03-17T05:50:52.167Z,51.72
2023-03-17T05:51:52.105Z,52.21
2023-03-17T05:52:52.119Z,52.53
2023-03-17T05:53:52.119Z,54.14
2023-03-17T05:54:52.092Z,54.79
2023-03-17T05:55:52.117Z,53.01
2023-03-17T05:56:52.090Z,53.17
2023-03-17T05:57:52.096Z,53.50
2023-03-17T05:58:52.090Z,52.53
2023-03-17T05:59:52.134Z,53.66
2023-03-17T06:00:52.061Z,53.17
2023-03-17T06:01:52.070Z,55.43
2023-03-17T06:02:52.104Z,55.11
2023-03-17T06:03:52.067Z,53.01
2023-03-17T06:04:52.075Z,54.30
2023-03-17T06:05:52.046Z,55.11
2023-03-17T06:06:52.024Z,53.66
2023-03-17T06:07:56.210Z,52.37
2023-03-17T06:08:53.056Z,53.98
2023-03-17T06:09:52.074Z,53.50
2023-03-17T06:10:52.026Z,53.17
2023-03-17T06:11:51.996Z,53.66
2023-03-17T06:12:51.984Z,53.66
2023-03-17T06:13:51.976Z,53.17
2023-03-17T06:14:52.028Z,54.95
2023-03-17T06:15:52.004Z,53.17
2023-03-17T06:16:51.989Z,52.05
2023-03-17T06:17:51.965Z,54.14
2023-03-17T06:18:51.957Z,54.79
2023-03-17T06:19:51.985Z,55.11
2023-03-17T06:20:51.928Z,54.30
2023-03-17T06:21:51.944Z,53.33
2023-03-17T06:23:04.028Z,53.66
2023-03-17T06:23:53.891Z,52.37
2023-03-17T06:24:51.973Z,53.33
2023-03-17T06:25:51.919Z,53.50
2023-03-17T06:26:51.894Z,54.30
2023-03-17T06:27:51.913Z,54.46
2023-03-17T06:28:51.900Z,54.14
2023-03-17T06:29:51.904Z,53.17
2023-03-17T06:30:52.894Z,54.79
2023-03-17T06:31:51.880Z,56.40
2023-03-17T06:32:51.963Z,56.72
2023-03-17T06:33:51.879Z,56.72
2023-03-17T06:34:51.900Z,56.24
2023-03-17T06:35:51.891Z,54.95
2023-03-17T06:36:51.847Z,56.40
2023-03-17T06:37:51.857Z,54.79
2023-03-17T06:38:51.840Z,53.50
2023-03-17T06:39:51.815Z,54.46
2023-03-17T06:40:51.827Z,54.30
2023-03-17T06:41:51.820Z,55.11
2023-03-17T06:42:51.805Z,54.95
2023-03-17T06:43:51.785Z,55.75
2023-03-17T06:44:51.812Z,55.75
2023-03-17T06:45:51.794Z,55.11
2023-03-17T06:46:52.826Z,54.79
2023-03-17T06:47:51.774Z,56.24
2023-03-17T06:48:51.739Z,53.17
2023-03-17T06:49:51.740Z,54.46
2023-03-17T06:50:51.729Z,55.43
2023-03-17T06:51:51.718Z,54.95
2023-03-17T06:52:51.783Z,53.98
2023-03-17T06:53:51.758Z,54.30
2023-03-17T06:54:51.715Z,54.95
2023-03-17T06:55:51.684Z,53.33
2023-03-17T06:56:51.682Z,53.98
2023-03-17T06:57:51.707Z,53.66
2023-03-17T06:58:51.720Z,53.50
2023-03-17T06:59:51.670Z,52.69
2023-03-17T07:00:52.659Z,53.66
2023-03-17T07:01:51.713Z,53.98
2023-03-17T07:02:51.671Z,52.69
2023-03-17T07:03:51.633Z,53.82
2023-03-17T07:04:51.713Z,52.85
2023-03-17T07:05:51.619Z,53.82
2023-03-17T07:06:51.621Z,52.85
2023-03-17T07:07:51.634Z,50.76
2023-03-17T07:08:51.643Z,53.33
2023-03-17T07:09:51.616Z,52.69
2023-03-17T07:10:51.603Z,52.21
2023-03-17T07:11:51.585Z,52.21
2023-03-17T07:12:51.608Z,51.72
2023-03-17T07:13:51.580Z,53.17
2023-03-17T07:14:51.559Z,53.01
2023-03-17T07:15:53.864Z,52.53
2023-03-17T07:16:51.695Z,52.53
2023-03-17T07:17:51.576Z,50.60
2023-03-17T07:18:51.556Z,51.24
2023-03-17T07:19:51.558Z,51.24
2023-03-17T07:20:51.577Z,51.72
2023-03-17T07:21:51.527Z,53.17
2023-03-17T07:22:51.575Z,50.92
2023-03-17T07:23:51.526Z,52.21
2023-03-17T07:24:51.551Z,52.05
2023-03-17T07:25:51.510Z,52.85
2023-03-17T07:26:51.469Z,52.69
2023-03-17T07:27:51.496Z,52.05
2023-03-17T07:28:51.496Z,52.53
2023-03-17T07:29:51.481Z,51.88
2023-03-17T07:30:51.466Z,51.72
2023-03-17T07:31:51.559Z,51.24
2023-03-17T07:32:51.520Z,51.72
2023-03-17T07:33:51.441Z,52.53
2023-03-17T07:34:51.457Z,50.60
2023-03-17T07:35:51.448Z,51.24
2023-03-17T07:36:51.396Z,51.08
2023-03-17T07:37:51.431Z,50.76
2023-03-17T07:38:51.416Z,51.24
2023-03-17T07:39:51.456Z,51.56
2023-03-17T07:40:51.422Z,52.37
2023-03-17T07:41:51.367Z,51.08
2023-03-17T07:42:51.405Z,50.76
2023-03-17T07:43:51.390Z,48.50
2023-03-17T07:44:51.401Z,49.95
2023-03-17T07:45:51.372Z,49.63
2023-03-17T07:46:51.365Z,51.56
2023-03-17T07:47:51.318Z,51.24
2023-03-17T07:48:51.371Z,50.76
2023-03-17T07:49:51.382Z,51.72
2023-03-17T07:50:51.349Z,51.72
2023-03-17T07:51:51.300Z,49.95
2023-03-17T07:52:51.308Z,50.11
2023-03-17T07:53:51.302Z,47.86
2023-03-17T07:54:51.299Z,49.15
2023-03-17T07:55:51.288Z,48.50
2023-03-17T07:56:51.297Z,47.70
2023-03-17T07:57:51.328Z,50.43
2023-03-17T07:58:51.303Z,50.11
2023-03-17T07:59:51.309Z,50.11
2023-03-17T08:00:51.249Z,50.27
2023-03-17T08:01:51.262Z,52.05
2023-03-17T08:03:07.029Z,48.50
2023-03-17T08:03:53.289Z,49.95
2023-03-17T08:04:51.255Z,49.47
2023-03-17T08:05:51.251Z,49.31
2023-03-17T08:06:51.225Z,49.79
2023-03-17T08:07:51.217Z,49.63
2023-03-17T08:08:51.178Z,49.63
2023-03-17T08:09:52.202Z,49.63
2023-03-17T08:10:51.231Z,51.56
2023-03-17T08:11:51.210Z,50.60
2023-03-17T08:12:51.179Z,50.60
2023-03-17T08:13:51.167Z,49.79
2023-03-17T08:14:51.212Z,50.43
2023-03-17T08:15:51.152Z,51.24
2023-03-17T08:16:51.275Z,50.76
2023-03-17T08:17:51.141Z,48.66
2023-03-17T08:18:51.149Z,48.66
2023-03-17T08:19:51.154Z,51.08
2023-03-17T08:20:51.132Z,50.43
2023-03-17T08:21:51.113Z,50.43
2023-03-17T08:22:51.096Z,49.63
2023-03-17T08:23:51.115Z,51.08
2023-03-17T08:24:51.103Z,49.31
2023-03-17T08:25:52.111Z,47.86
2023-03-17T08:26:51.154Z,48.34
2023-03-17T08:27:51.059Z,48.66
2023-03-17T08:28:51.086Z,48.98
2023-03-17T08:29:51.107Z,48.66
2023-03-17T08:30:51.152Z,48.50
2023-03-17T08:31:51.122Z,49.31
2023-03-17T08:32:51.106Z,49.79
2023-03-17T08:33:51.030Z,48.50
2023-03-17T08:34:51.043Z,48.66
2023-03-17T08:35:51.061Z,48.50
2023-03-17T08:36:50.998Z,48.34
2023-03-17T08:37:51.021Z,48.02
2023-03-17T08:38:51.127Z,47.70
2023-03-17T08:39:50.985Z,49.63
2023-03-17T08:40:51.035Z,50.11
2023-03-17T08:41:51.017Z,49.47
2023-03-17T08:42:50.955Z,47.21
2023-03-17T08:43:51.018Z,48.66
2023-03-17T08:44:50.962Z,46.41
2023-03-17T08:45:51.012Z,49.79
2023-03-17T08:46:50.978Z,47.53
2023-03-17T08:47:50.966Z,49.63
2023-03-17T08:48:50.954Z,47.53
2023-03-17T08:49:50.912Z,48.66
2023-03-17T08:50:50.905Z,48.82
2023-03-17T08:51:50.946Z,50.27
2023-03-17T08:52:50.915Z,50.60
2023-03-17T08:53:50.886Z,49.79
2023-03-17T08:54:50.888Z,48.50
2023-03-17T08:55:50.903Z,49.63
2023-03-17T08:56:50.899Z,47.70
2023-03-17T08:57:50.877Z,46.25
2023-03-17T08:58:50.904Z,46.41
2023-03-17T08:59:51.839Z,46.41
2023-03-17T09:00:50.867Z,49.63
2023-03-17T09:01:50.886Z,49.47
2023-03-17T09:02:50.899Z,48.18
2023-03-17T09:03:50.815Z,45.92
2023-03-17T09:04:50.799Z,48.66
2023-03-17T09:05:50.861Z,49.79
2023-03-17T09:07:02.725Z,47.21
2023-03-17T09:07:52.880Z,46.41
2023-03-17T09:08:50.772Z,45.76
2023-03-17T09:09:50.765Z,45.44
2023-03-17T09:10:51.855Z,49.79
2023-03-17T09:11:50.795Z,48.18
2023-03-17T09:12:50.779Z,47.21
2023-03-17T09:13:50.752Z,47.05
2023-03-17T09:14:50.733Z,50.43
2023-03-17T09:15:52.053Z,48.82
2023-03-17T09:16:51.762Z,48.02
2023-03-17T09:17:51.743Z,46.57
2023-03-17T09:18:50.780Z,47.21
2023-03-17T09:19:50.737Z,46.89
2023-03-17T09:20:50.748Z,48.66
2023-03-17T09:21:50.708Z,48.82
2023-03-17T09:22:50.694Z,48.34
2023-03-17T09:23:50.720Z,48.18
2023-03-17T09:24:50.695Z,47.53
2023-03-17T09:25:50.711Z,47.21
2023-03-17T09:26:50.664Z,47.05
2023-03-17T09:27:50.641Z,46.41
2023-03-17T09:28:50.624Z,49.15
2023-03-17T09:29:50.662Z,50.76
2023-03-17T09:30:50.705Z,48.34
2023-03-17T09:31:50.643Z,47.21
2023-03-17T09:32:50.670Z,47.05
2023-03-17T09:33:50.634Z,48.18
2023-03-17T09:34:51.685Z,49.95
2023-03-17T09:35:51.621Z,45.76
2023-03-17T09:36:50.609Z,47.37
2023-03-17T09:37:50.633Z,47.37
2023-03-17T09:38:50.577Z,47.21
2023-03-17T09:39:50.596Z,48.50
2023-03-17T09:40:50.604Z,48.98
2023-03-17T09:41:50.540Z,48.50
2023-03-17T09:42:50.566Z,48.34
2023-03-17T09:43:50.533Z,46.25
2023-03-17T09:44:50.557Z,47.05
2023-03-17T09:45:50.554Z,46.89
2023-03-17T09:46:50.637Z,48.18
2023-03-17T09:47:50.488Z,48.66
2023-03-17T09:48:50.515Z,46.41
2023-03-17T09:49:51.312Z,47.53
2023-03-17T09:50:50.518Z,46.89
2023-03-17T09:51:50.502Z,47.37
2023-03-17T09:52:51.523Z,49.63
2023-03-17T09:53:51.488Z,46.57
2023-03-17T09:54:50.477Z,49.63
2023-03-17T09:55:51.412Z,48.98
2023-03-17T09:56:50.478Z,47.21
2023-03-17T09:57:50.460Z,50.11
2023-03-17T09:58:51.343Z,48.66
2023-03-17T09:59:51.482Z,44.31
2023-03-17T10:00:50.464Z,48.98
2023-03-17T10:01:50.472Z,48.18
2023-03-17T10:02:50.419Z,47.53
2023-03-17T10:03:50.399Z,47.86
2023-03-17T10:04:50.501Z,48.02
2023-03-17T10:05:50.441Z,49.31
2023-03-17T10:06:50.369Z,47.21
2023-03-17T10:07:50.377Z,46.08
2023-03-17T10:08:50.369Z,48.82
2023-03-17T10:09:50.375Z,48.34
2023-03-17T10:10:50.470Z,49.15
